sensor_id;sensor_type;location;lat;lon;timestamp;P1;durP1;ratioP1;P2;durP2;ratioP2
72676;SDS011;60755;51.374;10.662;2022-08-27T00:02:09;45.80;;;31.08;;
72676;SDS011;60755;51.374;10.662;2022-08-27T00:04:36;54.83;;;32.58;;
72676;SDS011;60755;51.374;10.662;2022-08-27T00:07:05;50.10;;;32.13;;
72676;SDS011;60755;51.374;10.662;2022-08-27T00:09:32;50.78;;;34.78;;
72676;SDS011;60755;51.374;10.662;2022-08-27T00:12:00;51.38;;;34.83;;
72676;SDS011;60755;51.374;10.662;2022-08-27T00:14:27;54.30;;;34.95;;
72676;SDS011;60755;51.374;10.662;2022-08-27T00:16:54;54.47;;;33.58;;
72676;SDS011;60755;51.374;10.662;2022-08-27T00:19:22;55.40;;;34.53;;
72676;SDS011;60755;51.374;10.662;2022-08-27T00:21:49;61.70;;;36.03;;
72676;SDS011;60755;51.374;10.662;2022-08-27T00:24:15;54.97;;;35.40;;
72676;SDS011;60755;51.374;10.662;2022-08-27T00:26:42;54.22;;;35.70;;
72676;SDS011;60755;51.374;10.662;2022-08-27T00:29:09;49.45;;;32.83;;
72676;SDS011;60755;51.374;10.662;2022-08-27T00:31:36;52.50;;;33.17;;
72676;SDS011;60755;51.374;10.662;2022-08-27T00:34:02;47.88;;;31.50;;
72676;SDS011;60755;51.374;10.662;2022-08-27T00:36:30;46.97;;;32.55;;
72676;SDS011;60755;51.374;10.662;2022-08-27T00:38:57;46.78;;;31.73;;
72676;SDS011;60755;51.374;10.662;2022-08-27T00:41:23;50.72;;;32.92;;
72676;SDS011;60755;51.374;10.662;2022-08-27T00:43:50;44.22;;;30.70;;
72676;SDS011;60755;51.374;10.662;2022-08-27T00:46:20;44.65;;;30.52;;
72676;SDS011;60755;51.374;10.662;2022-08-27T00:48:50;43.30;;;29.63;;
72676;SDS011;60755;51.374;10.662;2022-08-27T00:51:19;47.78;;;29.60;;
72676;SDS011;60755;51.374;10.662;2022-08-27T00:53:48;48.83;;;30.23;;
72676;SDS011;60755;51.374;10.662;2022-08-27T00:56:16;45.88;;;30.13;;
72676;SDS011;60755;51.374;10.662;2022-08-27T00:58:46;45.13;;;30.23;;
72676;SDS011;60755;51.374;10.662;2022-08-27T01:01:16;42.92;;;29.17;;
72676;SDS011;60755;51.374;10.662;2022-08-27T01:03:45;41.88;;;28.27;;
72676;SDS011;60755;51.374;10.662;2022-08-27T01:06:15;37.95;;;27.83;;
72676;SDS011;60755;51.374;10.662;2022-08-27T01:08:44;37.40;;;27.15;;
72676;SDS011;60755;51.374;10.662;2022-08-27T01:11:16;36.00;;;25.52;;
72676;SDS011;60755;51.374;10.662;2022-08-27T01:13:43;39.20;;;26.40;;
72676;SDS011;60755;51.374;10.662;2022-08-27T01:16:09;31.48;;;24.48;;
72676;SDS011;60755;51.374;10.662;2022-08-27T01:18:42;30.42;;;23.75;;
72676;SDS011;60755;51.374;10.662;2022-08-27T01:21:13;30.67;;;23.08;;
72676;SDS011;60755;51.374;10.662;2022-08-27T01:24:03;26.05;;;21.60;;
72676;SDS011;60755;51.374;10.662;2022-08-27T01:26:40;30.55;;;21.52;;
72676;SDS011;60755;51.374;10.662;2022-08-27T01:29:07;24.95;;;19.55;;
72676;SDS011;60755;51.374;10.662;2022-08-27T01:31:33;27.50;;;19.95;;
72676;SDS011;60755;51.374;10.662;2022-08-27T01:34:00;27.40;;;18.90;;
72676;SDS011;60755;51.374;10.662;2022-08-27T01:36:28;21.55;;;17.98;;
72676;SDS011;60755;51.374;10.662;2022-08-27T01:38:56;21.52;;;17.75;;
72676;SDS011;60755;51.374;10.662;2022-08-27T01:41:23;22.77;;;17.63;;
72676;SDS011;60755;51.374;10.662;2022-08-27T01:43:51;19.75;;;17.17;;
72676;SDS011;60755;51.374;10.662;2022-08-27T01:46:19;22.27;;;17.02;;
72676;SDS011;60755;51.374;10.662;2022-08-27T01:48:46;22.10;;;16.10;;
72676;SDS011;60755;51.374;10.662;2022-08-27T01:51:13;20.73;;;15.52;;
72676;SDS011;60755;51.374;10.662;2022-08-27T01:53:39;18.83;;;15.70;;
72676;SDS011;60755;51.374;10.662;2022-08-27T01:56:06;19.10;;;14.52;;
72676;SDS011;60755;51.374;10.662;2022-08-27T01:58:32;18.70;;;15.73;;
72676;SDS011;60755;51.374;10.662;2022-08-27T02:01:03;25.23;;;16.52;;
72676;SDS011;60755;51.374;10.662;2022-08-27T02:03:32;22.85;;;15.52;;
72676;SDS011;60755;51.374;10.662;2022-08-27T02:06:02;21.05;;;15.55;;
72676;SDS011;60755;51.374;10.662;2022-08-27T02:08:29;20.65;;;14.80;;
72676;SDS011;60755;51.374;10.662;2022-08-27T02:10:56;21.38;;;14.77;;
72676;SDS011;60755;51.374;10.662;2022-08-27T02:13:23;26.35;;;16.92;;
72676;SDS011;60755;51.374;10.662;2022-08-27T02:15:49;21.58;;;15.38;;
72676;SDS011;60755;51.374;10.662;2022-08-27T02:18:17;19.65;;;15.98;;
72676;SDS011;60755;51.374;10.662;2022-08-27T02:20:44;19.65;;;16.23;;
72676;SDS011;60755;51.374;10.662;2022-08-27T02:23:12;20.10;;;16.13;;
72676;SDS011;60755;51.374;10.662;2022-08-27T02:25:39;21.05;;;16.27;;
72676;SDS011;60755;51.374;10.662;2022-08-27T02:28:06;24.23;;;16.60;;
72676;SDS011;60755;51.374;10.662;2022-08-27T02:30:34;22.02;;;16.45;;
72676;SDS011;60755;51.374;10.662;2022-08-27T02:33:02;22.20;;;16.35;;
72676;SDS011;60755;51.374;10.662;2022-08-27T02:35:32;25.15;;;17.35;;
72676;SDS011;60755;51.374;10.662;2022-08-27T02:38:02;26.15;;;16.75;;
72676;SDS011;60755;51.374;10.662;2022-08-27T02:40:29;23.13;;;17.17;;
72676;SDS011;60755;51.374;10.662;2022-08-27T02:42:55;20.45;;;15.85;;
72676;SDS011;60755;51.374;10.662;2022-08-27T02:45:21;21.48;;;15.40;;
72676;SDS011;60755;51.374;10.662;2022-08-27T02:47:48;21.10;;;16.10;;
72676;SDS011;60755;51.374;10.662;2022-08-27T02:50:15;21.23;;;16.27;;
72676;SDS011;60755;51.374;10.662;2022-08-27T02:52:43;23.80;;;16.83;;
72676;SDS011;60755;51.374;10.662;2022-08-27T02:55:10;21.83;;;16.73;;
72676;SDS011;60755;51.374;10.662;2022-08-27T02:57:38;22.20;;;16.73;;
72676;SDS011;60755;51.374;10.662;2022-08-27T03:00:05;22.10;;;17.35;;
72676;SDS011;60755;51.374;10.662;2022-08-27T03:02:34;23.15;;;18.30;;
72676;SDS011;60755;51.374;10.662;2022-08-27T03:05:00;26.90;;;17.98;;
72676;SDS011;60755;51.374;10.662;2022-08-27T03:07:27;27.00;;;18.77;;
72676;SDS011;60755;51.374;10.662;2022-08-27T03:09:54;29.35;;;19.00;;
72676;SDS011;60755;51.374;10.662;2022-08-27T03:12:21;27.10;;;18.67;;
72676;SDS011;60755;51.374;10.662;2022-08-27T03:14:48;34.50;;;19.80;;
72676;SDS011;60755;51.374;10.662;2022-08-27T03:17:14;26.70;;;18.52;;
72676;SDS011;60755;51.374;10.662;2022-08-27T03:19:58;26.58;;;18.45;;
72676;SDS011;60755;51.374;10.662;2022-08-27T03:22:25;28.30;;;18.58;;
72676;SDS011;60755;51.374;10.662;2022-08-27T03:24:51;25.27;;;18.27;;
72676;SDS011;60755;51.374;10.662;2022-08-27T03:27:20;26.42;;;19.08;;
72676;SDS011;60755;51.374;10.662;2022-08-27T03:29:47;27.95;;;19.10;;
72676;SDS011;60755;51.374;10.662;2022-08-27T03:32:13;30.25;;;19.90;;
72676;SDS011;60755;51.374;10.662;2022-08-27T03:34:39;31.25;;;20.40;;
72676;SDS011;60755;51.374;10.662;2022-08-27T03:37:06;30.50;;;20.65;;
72676;SDS011;60755;51.374;10.662;2022-08-27T03:39:32;33.80;;;20.90;;
72676;SDS011;60755;51.374;10.662;2022-08-27T03:41:59;30.27;;;21.13;;
72676;SDS011;60755;51.374;10.662;2022-08-27T03:44:26;30.20;;;20.40;;
72676;SDS011;60755;51.374;10.662;2022-08-27T03:46:53;27.90;;;19.42;;
72676;SDS011;60755;51.374;10.662;2022-08-27T03:49:19;32.40;;;19.60;;
72676;SDS011;60755;51.374;10.662;2022-08-27T03:51:47;26.15;;;19.17;;
72676;SDS011;60755;51.374;10.662;2022-08-27T03:54:14;27.48;;;18.88;;
72676;SDS011;60755;51.374;10.662;2022-08-27T03:56:41;32.17;;;19.10;;
72676;SDS011;60755;51.374;10.662;2022-08-27T03:59:07;28.60;;;18.98;;
72676;SDS011;60755;51.374;10.662;2022-08-27T04:01:35;27.50;;;19.23;;
72676;SDS011;60755;51.374;10.662;2022-08-27T04:04:01;27.20;;;19.08;;
72676;SDS011;60755;51.374;10.662;2022-08-27T04:06:28;28.67;;;18.45;;
72676;SDS011;60755;51.374;10.662;2022-08-27T04:08:55;27.33;;;18.15;;
72676;SDS011;60755;51.374;10.662;2022-08-27T04:11:21;26.08;;;16.95;;
72676;SDS011;60755;51.374;10.662;2022-08-27T04:13:47;27.27;;;18.05;;
72676;SDS011;60755;51.374;10.662;2022-08-27T04:16:14;24.83;;;19.25;;
72676;SDS011;60755;51.374;10.662;2022-08-27T04:18:42;26.25;;;17.65;;
72676;SDS011;60755;51.374;10.662;2022-08-27T04:21:09;25.88;;;17.65;;
72676;SDS011;60755;51.374;10.662;2022-08-27T04:23:37;26.45;;;18.00;;
72676;SDS011;60755;51.374;10.662;2022-08-27T04:26:04;25.80;;;17.00;;
72676;SDS011;60755;51.374;10.662;2022-08-27T04:28:31;25.90;;;17.60;;
72676;SDS011;60755;51.374;10.662;2022-08-27T04:30:58;25.35;;;17.20;;
72676;SDS011;60755;51.374;10.662;2022-08-27T04:33:24;25.55;;;17.55;;
72676;SDS011;60755;51.374;10.662;2022-08-27T04:35:57;25.30;;;17.08;;
72676;SDS011;60755;51.374;10.662;2022-08-27T04:38:24;26.92;;;17.17;;
72676;SDS011;60755;51.374;10.662;2022-08-27T04:40:50;23.40;;;16.42;;
72676;SDS011;60755;51.374;10.662;2022-08-27T04:43:35;24.58;;;16.63;;
72676;SDS011;60755;51.374;10.662;2022-08-27T04:46:01;22.02;;;16.83;;
72676;SDS011;60755;51.374;10.662;2022-08-27T04:48:28;23.45;;;16.45;;
72676;SDS011;60755;51.374;10.662;2022-08-27T04:50:56;27.10;;;16.58;;
72676;SDS011;60755;51.374;10.662;2022-08-27T04:53:23;24.25;;;15.90;;
72676;SDS011;60755;51.374;10.662;2022-08-27T04:55:51;24.40;;;17.05;;
72676;SDS011;60755;51.374;10.662;2022-08-27T04:58:19;26.70;;;17.33;;
72676;SDS011;60755;51.374;10.662;2022-08-27T05:00:47;27.27;;;16.92;;
72676;SDS011;60755;51.374;10.662;2022-08-27T05:03:15;24.25;;;17.50;;
72676;SDS011;60755;51.374;10.662;2022-08-27T05:05:44;22.73;;;16.73;;
72676;SDS011;60755;51.374;10.662;2022-08-27T05:08:12;24.00;;;17.27;;
72676;SDS011;60755;51.374;10.662;2022-08-27T05:10:40;24.23;;;16.27;;
72676;SDS011;60755;51.374;10.662;2022-08-27T05:13:08;25.98;;;17.42;;
72676;SDS011;60755;51.374;10.662;2022-08-27T05:15:34;21.83;;;17.00;;
72676;SDS011;60755;51.374;10.662;2022-08-27T05:18:01;24.48;;;17.80;;
72676;SDS011;60755;51.374;10.662;2022-08-27T05:20:28;28.20;;;17.95;;
72676;SDS011;60755;51.374;10.662;2022-08-27T05:22:55;24.52;;;17.35;;
72676;SDS011;60755;51.374;10.662;2022-08-27T05:25:23;25.77;;;16.90;;
72676;SDS011;60755;51.374;10.662;2022-08-27T05:27:51;21.58;;;16.42;;
72676;SDS011;60755;51.374;10.662;2022-08-27T05:30:17;24.95;;;16.60;;
72676;SDS011;60755;51.374;10.662;2022-08-27T05:32:44;26.92;;;17.83;;
72676;SDS011;60755;51.374;10.662;2022-08-27T05:35:11;24.08;;;15.60;;
72676;SDS011;60755;51.374;10.662;2022-08-27T05:37:37;22.77;;;15.60;;
72676;SDS011;60755;51.374;10.662;2022-08-27T05:40:04;23.55;;;16.10;;
72676;SDS011;60755;51.374;10.662;2022-08-27T05:42:33;21.55;;;16.20;;
72676;SDS011;60755;51.374;10.662;2022-08-27T05:44:59;21.98;;;16.10;;
72676;SDS011;60755;51.374;10.662;2022-08-27T05:47:26;23.10;;;16.67;;
72676;SDS011;60755;51.374;10.662;2022-08-27T05:49:53;22.15;;;15.70;;
72676;SDS011;60755;51.374;10.662;2022-08-27T05:52:19;22.65;;;15.52;;
72676;SDS011;60755;51.374;10.662;2022-08-27T05:54:46;22.13;;;16.23;;
72676;SDS011;60755;51.374;10.662;2022-08-27T05:57:13;25.38;;;17.13;;
72676;SDS011;60755;51.374;10.662;2022-08-27T05:59:41;27.48;;;17.35;;
72676;SDS011;60755;51.374;10.662;2022-08-27T06:02:25;23.27;;;16.45;;
72676;SDS011;60755;51.374;10.662;2022-08-27T06:04:52;26.00;;;17.50;;
72676;SDS011;60755;51.374;10.662;2022-08-27T06:07:18;22.02;;;16.13;;
72676;SDS011;60755;51.374;10.662;2022-08-27T06:09:45;25.95;;;16.58;;
72676;SDS011;60755;51.374;10.662;2022-08-27T06:12:11;21.27;;;15.90;;
72676;SDS011;60755;51.374;10.662;2022-08-27T06:14:38;20.15;;;15.30;;
72676;SDS011;60755;51.374;10.662;2022-08-27T06:17:05;22.13;;;15.07;;
72676;SDS011;60755;51.374;10.662;2022-08-27T06:19:32;18.92;;;14.50;;
72676;SDS011;60755;51.374;10.662;2022-08-27T06:22:00;19.98;;;14.32;;
72676;SDS011;60755;51.374;10.662;2022-08-27T06:24:26;18.17;;;13.07;;
72676;SDS011;60755;51.374;10.662;2022-08-27T06:26:53;21.85;;;13.65;;
72676;SDS011;60755;51.374;10.662;2022-08-27T06:29:20;22.33;;;14.20;;
72676;SDS011;60755;51.374;10.662;2022-08-27T06:31:47;20.30;;;14.43;;
72676;SDS011;60755;51.374;10.662;2022-08-27T06:34:15;18.40;;;13.63;;
72676;SDS011;60755;51.374;10.662;2022-08-27T06:36:42;19.05;;;12.93;;
72676;SDS011;60755;51.374;10.662;2022-08-27T06:39:09;16.73;;;12.65;;
72676;SDS011;60755;51.374;10.662;2022-08-27T06:41:37;17.13;;;13.00;;
72676;SDS011;60755;51.374;10.662;2022-08-27T06:44:05;16.40;;;13.32;;
72676;SDS011;60755;51.374;10.662;2022-08-27T06:46:31;19.75;;;14.15;;
72676;SDS011;60755;51.374;10.662;2022-08-27T06:48:59;18.40;;;13.25;;
72676;SDS011;60755;51.374;10.662;2022-08-27T06:51:28;17.85;;;13.57;;
72676;SDS011;60755;51.374;10.662;2022-08-27T06:53:56;18.90;;;13.23;;
72676;SDS011;60755;51.374;10.662;2022-08-27T06:56:25;16.70;;;12.00;;
72676;SDS011;60755;51.374;10.662;2022-08-27T06:58:52;14.80;;;12.32;;
72676;SDS011;60755;51.374;10.662;2022-08-27T07:01:20;19.55;;;12.77;;
72676;SDS011;60755;51.374;10.662;2022-08-27T07:03:48;17.65;;;13.15;;
72676;SDS011;60755;51.374;10.662;2022-08-27T07:06:14;21.25;;;14.13;;
72676;SDS011;60755;51.374;10.662;2022-08-27T07:08:43;17.77;;;13.52;;
72676;SDS011;60755;51.374;10.662;2022-08-27T07:11:11;19.25;;;13.73;;
72676;SDS011;60755;51.374;10.662;2022-08-27T07:13:39;21.23;;;14.55;;
72676;SDS011;60755;51.374;10.662;2022-08-27T07:16:07;16.23;;;12.98;;
72676;SDS011;60755;51.374;10.662;2022-08-27T07:18:36;15.77;;;12.95;;
72676;SDS011;60755;51.374;10.662;2022-08-27T07:21:03;19.25;;;13.25;;
72676;SDS011;60755;51.374;10.662;2022-08-27T07:23:30;18.83;;;13.02;;
72676;SDS011;60755;51.374;10.662;2022-08-27T07:25:59;15.57;;;11.82;;
72676;SDS011;60755;51.374;10.662;2022-08-27T07:28:26;14.80;;;12.15;;
72676;SDS011;60755;51.374;10.662;2022-08-27T07:30:53;16.85;;;12.48;;
72676;SDS011;60755;51.374;10.662;2022-08-27T07:33:20;15.70;;;11.93;;
72676;SDS011;60755;51.374;10.662;2022-08-27T07:35:46;13.20;;;11.05;;
72676;SDS011;60755;51.374;10.662;2022-08-27T07:38:13;16.13;;;11.48;;
72676;SDS011;60755;51.374;10.662;2022-08-27T07:40:40;15.07;;;10.32;;
72676;SDS011;60755;51.374;10.662;2022-08-27T07:43:08;11.80;;;10.32;;
72676;SDS011;60755;51.374;10.662;2022-08-27T07:45:52;11.90;;;9.65;;
72676;SDS011;60755;51.374;10.662;2022-08-27T07:48:20;10.43;;;9.13;;
72676;SDS011;60755;51.374;10.662;2022-08-27T07:50:47;11.73;;;8.77;;
72676;SDS011;60755;51.374;10.662;2022-08-27T07:53:13;11.02;;;9.48;;
72676;SDS011;60755;51.374;10.662;2022-08-27T07:55:40;9.55;;;8.48;;
72676;SDS011;60755;51.374;10.662;2022-08-27T07:58:07;8.95;;;7.88;;
72676;SDS011;60755;51.374;10.662;2022-08-27T08:00:34;10.00;;;8.75;;
72676;SDS011;60755;51.374;10.662;2022-08-27T08:03:00;10.35;;;7.85;;
72676;SDS011;60755;51.374;10.662;2022-08-27T08:05:27;11.13;;;8.27;;
72676;SDS011;60755;51.374;10.662;2022-08-27T08:07:54;8.40;;;7.60;;
72676;SDS011;60755;51.374;10.662;2022-08-27T08:10:20;8.38;;;7.45;;
72676;SDS011;60755;51.374;10.662;2022-08-27T08:12:47;9.32;;;7.22;;
72676;SDS011;60755;51.374;10.662;2022-08-27T08:15:16;7.82;;;7.13;;
72676;SDS011;60755;51.374;10.662;2022-08-27T08:17:43;7.50;;;6.90;;
72676;SDS011;60755;51.374;10.662;2022-08-27T08:20:10;7.82;;;6.93;;
72676;SDS011;60755;51.374;10.662;2022-08-27T08:22:37;7.65;;;6.43;;
72676;SDS011;60755;51.374;10.662;2022-08-27T08:25:04;7.85;;;7.05;;
72676;SDS011;60755;51.374;10.662;2022-08-27T08:27:31;11.02;;;7.20;;
72676;SDS011;60755;51.374;10.662;2022-08-27T08:29:58;7.03;;;6.43;;
72676;SDS011;60755;51.374;10.662;2022-08-27T08:32:26;7.70;;;6.95;;
72676;SDS011;60755;51.374;10.662;2022-08-27T08:34:52;7.63;;;6.93;;
72676;SDS011;60755;51.374;10.662;2022-08-27T08:37:19;7.97;;;7.28;;
72676;SDS011;60755;51.374;10.662;2022-08-27T08:39:45;8.13;;;7.32;;
72676;SDS011;60755;51.374;10.662;2022-08-27T08:42:25;8.07;;;7.30;;
72676;SDS011;60755;51.374;10.662;2022-08-27T08:44:59;8.57;;;7.78;;
72676;SDS011;60755;51.374;10.662;2022-08-27T08:47:30;7.95;;;7.28;;
72676;SDS011;60755;51.374;10.662;2022-08-27T08:50:04;8.15;;;7.35;;
72676;SDS011;60755;51.374;10.662;2022-08-27T08:52:38;8.48;;;7.60;;
72676;SDS011;60755;51.374;10.662;2022-08-27T08:55:19;9.07;;;7.70;;
72676;SDS011;60755;51.374;10.662;2022-08-27T08:57:55;9.27;;;8.10;;
72676;SDS011;60755;51.374;10.662;2022-08-27T09:00:32;8.40;;;7.60;;
72676;SDS011;60755;51.374;10.662;2022-08-27T09:03:00;8.38;;;7.57;;
72676;SDS011;60755;51.374;10.662;2022-08-27T09:05:26;9.15;;;7.50;;
72676;SDS011;60755;51.374;10.662;2022-08-27T09:07:57;7.95;;;7.18;;
72676;SDS011;60755;51.374;10.662;2022-08-27T09:10:33;8.80;;;7.85;;
72676;SDS011;60755;51.374;10.662;2022-08-27T09:13:09;7.43;;;6.72;;
72676;SDS011;60755;51.374;10.662;2022-08-27T09:15:44;8.18;;;7.45;;
72676;SDS011;60755;51.374;10.662;2022-08-27T09:18:13;7.60;;;7.00;;
72676;SDS011;60755;51.374;10.662;2022-08-27T09:20:41;8.57;;;7.78;;
72676;SDS011;60755;51.374;10.662;2022-08-27T09:23:13;8.98;;;8.10;;
72676;SDS011;60755;51.374;10.662;2022-08-27T09:25:45;9.02;;;8.18;;
72676;SDS011;60755;51.374;10.662;2022-08-27T09:28:13;10.10;;;8.68;;
72676;SDS011;60755;51.374;10.662;2022-08-27T09:31:04;8.93;;;8.07;;
72676;SDS011;60755;51.374;10.662;2022-08-27T09:33:33;9.82;;;8.93;;
72676;SDS011;60755;51.374;10.662;2022-08-27T09:36:00;10.43;;;9.43;;
72676;SDS011;60755;51.374;10.662;2022-08-27T09:38:28;9.15;;;8.15;;
72676;SDS011;60755;51.374;10.662;2022-08-27T09:40:57;10.32;;;8.43;;
72676;SDS011;60755;51.374;10.662;2022-08-27T09:43:26;9.63;;;8.73;;
72676;SDS011;60755;51.374;10.662;2022-08-27T09:45:56;10.27;;;8.73;;
72676;SDS011;60755;51.374;10.662;2022-08-27T09:48:25;12.45;;;8.90;;
72676;SDS011;60755;51.374;10.662;2022-08-27T09:50:55;9.68;;;8.68;;
72676;SDS011;60755;51.374;10.662;2022-08-27T09:53:26;14.60;;;9.65;;
72676;SDS011;60755;51.374;10.662;2022-08-27T09:55:56;10.93;;;9.80;;
72676;SDS011;60755;51.374;10.662;2022-08-27T09:58:26;10.77;;;9.65;;
72676;SDS011;60755;51.374;10.662;2022-08-27T10:00:59;12.73;;;10.20;;
72676;SDS011;60755;51.374;10.662;2022-08-27T10:03:27;10.85;;;9.45;;
72676;SDS011;60755;51.374;10.662;2022-08-27T10:05:55;11.35;;;9.95;;
72676;SDS011;60755;51.374;10.662;2022-08-27T10:08:23;10.73;;;8.98;;
72676;SDS011;60755;51.374;10.662;2022-08-27T10:10:54;10.73;;;9.50;;
72676;SDS011;60755;51.374;10.662;2022-08-27T10:13:23;11.68;;;9.93;;
72676;SDS011;60755;51.374;10.662;2022-08-27T10:16:06;11.82;;;9.48;;
72676;SDS011;60755;51.374;10.662;2022-08-27T10:18:42;12.32;;;9.88;;
72676;SDS011;60755;51.374;10.662;2022-08-27T10:21:20;11.68;;;9.60;;
72676;SDS011;60755;51.374;10.662;2022-08-27T10:23:50;13.80;;;10.27;;
72676;SDS011;60755;51.374;10.662;2022-08-27T10:26:29;12.50;;;10.48;;
72676;SDS011;60755;51.374;10.662;2022-08-27T10:29:06;15.73;;;10.50;;
72676;SDS011;60755;51.374;10.662;2022-08-27T10:31:39;10.73;;;9.50;;
72676;SDS011;60755;51.374;10.662;2022-08-27T10:34:27;12.85;;;9.95;;
72676;SDS011;60755;51.374;10.662;2022-08-27T10:37:04;11.95;;;9.35;;
72676;SDS011;60755;51.374;10.662;2022-08-27T10:39:42;14.90;;;10.40;;
72676;SDS011;60755;51.374;10.662;2022-08-27T10:42:20;12.35;;;10.23;;
72676;SDS011;60755;51.374;10.662;2022-08-27T10:45:03;10.90;;;9.05;;
72676;SDS011;60755;51.374;10.662;2022-08-27T10:47:44;12.05;;;10.45;;
72676;SDS011;60755;51.374;10.662;2022-08-27T10:50:20;15.77;;;10.40;;
72676;SDS011;60755;51.374;10.662;2022-08-27T10:52:55;12.48;;;10.15;;
72676;SDS011;60755;51.374;10.662;2022-08-27T10:55:26;11.63;;;10.35;;
72676;SDS011;60755;51.374;10.662;2022-08-27T11:00:56;13.15;;;10.13;;
72676;SDS011;60755;51.374;10.662;2022-08-27T11:03:29;14.10;;;10.35;;
72676;SDS011;60755;51.374;10.662;2022-08-27T11:06:02;11.38;;;9.90;;
72676;SDS011;60755;51.374;10.662;2022-08-27T11:08:37;11.30;;;9.70;;
72676;SDS011;60755;51.374;10.662;2022-08-27T11:11:09;13.52;;;9.73;;
72676;SDS011;60755;51.374;10.662;2022-08-27T11:13:40;15.77;;;10.77;;
72676;SDS011;60755;51.374;10.662;2022-08-27T11:16:13;13.35;;;10.50;;
72676;SDS011;60755;51.374;10.662;2022-08-27T11:18:43;14.10;;;11.30;;
72676;SDS011;60755;51.374;10.662;2022-08-27T11:21:15;12.10;;;10.27;;
72676;SDS011;60755;51.374;10.662;2022-08-27T11:23:49;16.48;;;10.40;;
72676;SDS011;60755;51.374;10.662;2022-08-27T11:26:21;12.55;;;9.70;;
72676;SDS011;60755;51.374;10.662;2022-08-27T11:28:48;11.82;;;9.90;;
72676;SDS011;60755;51.374;10.662;2022-08-27T11:31:18;11.48;;;9.88;;
72676;SDS011;60755;51.374;10.662;2022-08-27T11:33:51;14.52;;;9.90;;
72676;SDS011;60755;51.374;10.662;2022-08-27T11:39:31;10.60;;;9.50;;
72676;SDS011;60755;51.374;10.662;2022-08-27T11:42:17;12.30;;;10.52;;
72676;SDS011;60755;51.374;10.662;2022-08-27T11:44:53;12.02;;;10.25;;
72676;SDS011;60755;51.374;10.662;2022-08-27T11:47:24;12.02;;;9.57;;
72676;SDS011;60755;51.374;10.662;2022-08-27T11:49:53;10.85;;;9.27;;
72676;SDS011;60755;51.374;10.662;2022-08-27T11:52:22;11.70;;;9.98;;
72676;SDS011;60755;51.374;10.662;2022-08-27T11:54:56;10.32;;;8.90;;
72676;SDS011;60755;51.374;10.662;2022-08-27T11:57:35;9.75;;;8.32;;
72676;SDS011;60755;51.374;10.662;2022-08-27T12:00:10;9.40;;;8.50;;
72676;SDS011;60755;51.374;10.662;2022-08-27T12:02:41;9.63;;;8.40;;
72676;SDS011;60755;51.374;10.662;2022-08-27T12:05:18;10.05;;;9.02;;
72676;SDS011;60755;51.374;10.662;2022-08-27T12:07:48;10.88;;;9.48;;
72676;SDS011;60755;51.374;10.662;2022-08-27T12:10:19;11.32;;;9.23;;
72676;SDS011;60755;51.374;10.662;2022-08-27T12:12:56;10.27;;;9.27;;
72676;SDS011;60755;51.374;10.662;2022-08-27T12:15:38;13.45;;;9.88;;
72676;SDS011;60755;51.374;10.662;2022-08-27T12:18:22;10.60;;;9.35;;
72676;SDS011;60755;51.374;10.662;2022-08-27T12:21:02;9.63;;;8.65;;
72676;SDS011;60755;51.374;10.662;2022-08-27T12:23:41;11.73;;;8.38;;
72676;SDS011;60755;51.374;10.662;2022-08-27T12:26:17;11.75;;;8.80;;
72676;SDS011;60755;51.374;10.662;2022-08-27T12:28:54;14.20;;;8.95;;
72676;SDS011;60755;51.374;10.662;2022-08-27T12:31:49;11.85;;;8.85;;
72676;SDS011;60755;51.374;10.662;2022-08-27T12:34:19;9.00;;;8.07;;
72676;SDS011;60755;51.374;10.662;2022-08-27T12:36:50;12.40;;;8.15;;
72676;SDS011;60755;51.374;10.662;2022-08-27T12:39:19;10.35;;;9.25;;
72676;SDS011;60755;51.374;10.662;2022-08-27T12:41:50;11.35;;;9.50;;
72676;SDS011;60755;51.374;10.662;2022-08-27T12:44:21;12.52;;;9.13;;
72676;SDS011;60755;51.374;10.662;2022-08-27T12:46:50;10.73;;;9.40;;
72676;SDS011;60755;51.374;10.662;2022-08-27T12:49:22;13.27;;;10.55;;
72676;SDS011;60755;51.374;10.662;2022-08-27T12:51:51;12.98;;;10.07;;
72676;SDS011;60755;51.374;10.662;2022-08-27T12:54:21;16.52;;;11.02;;
72676;SDS011;60755;51.374;10.662;2022-08-27T12:57:00;19.88;;;11.80;;
72676;SDS011;60755;51.374;10.662;2022-08-27T12:59:39;13.57;;;10.10;;
72676;SDS011;60755;51.374;10.662;2022-08-27T13:02:27;12.68;;;9.90;;
72676;SDS011;60755;51.374;10.662;2022-08-27T13:05:05;20.15;;;10.52;;
72676;SDS011;60755;51.374;10.662;2022-08-27T13:07:32;12.43;;;9.23;;
72676;SDS011;60755;51.374;10.662;2022-08-27T13:10:07;13.70;;;11.18;;
72676;SDS011;60755;51.374;10.662;2022-08-27T13:12:38;14.10;;;10.65;;
72676;SDS011;60755;51.374;10.662;2022-08-27T13:15:06;12.77;;;10.00;;
72676;SDS011;60755;51.374;10.662;2022-08-27T13:17:35;14.02;;;10.05;;
72676;SDS011;60755;51.374;10.662;2022-08-27T13:20:10;17.10;;;10.45;;
72676;SDS011;60755;51.374;10.662;2022-08-27T13:22:40;15.90;;;10.48;;
72676;SDS011;60755;51.374;10.662;2022-08-27T13:25:17;13.48;;;10.18;;
72676;SDS011;60755;51.374;10.662;2022-08-27T13:27:51;13.32;;;9.93;;
72676;SDS011;60755;51.374;10.662;2022-08-27T13:30:20;10.85;;;9.55;;
72676;SDS011;60755;51.374;10.662;2022-08-27T13:32:47;16.75;;;10.25;;
72676;SDS011;60755;51.374;10.662;2022-08-27T13:35:15;12.52;;;9.98;;
72676;SDS011;60755;51.374;10.662;2022-08-27T13:37:43;10.60;;;9.40;;
72676;SDS011;60755;51.374;10.662;2022-08-27T13:40:21;10.57;;;9.55;;
72676;SDS011;60755;51.374;10.662;2022-08-27T13:42:53;12.57;;;10.05;;
72676;SDS011;60755;51.374;10.662;2022-08-27T13:45:21;14.50;;;9.85;;
72676;SDS011;60755;51.374;10.662;2022-08-27T13:47:47;13.55;;;9.65;;
72676;SDS011;60755;51.374;10.662;2022-08-27T13:50:17;13.02;;;9.63;;
72676;SDS011;60755;51.374;10.662;2022-08-27T13:52:47;11.57;;;9.32;;
72676;SDS011;60755;51.374;10.662;2022-08-27T13:55:32;14.27;;;10.40;;
72676;SDS011;60755;51.374;10.662;2022-08-27T13:58:10;11.10;;;9.90;;
72676;SDS011;60755;51.374;10.662;2022-08-27T14:00:37;12.15;;;10.85;;
72676;SDS011;60755;51.374;10.662;2022-08-27T14:03:19;12.05;;;10.45;;
72676;SDS011;60755;51.374;10.662;2022-08-27T14:05:48;17.08;;;11.10;;
72676;SDS011;60755;51.374;10.662;2022-08-27T14:08:15;14.52;;;10.82;;
72676;SDS011;60755;51.374;10.662;2022-08-27T14:10:45;12.30;;;11.00;;
72676;SDS011;60755;51.374;10.662;2022-08-27T14:13:20;14.90;;;11.52;;
72676;SDS011;60755;51.374;10.662;2022-08-27T14:15:48;14.57;;;10.60;;
72676;SDS011;60755;51.374;10.662;2022-08-27T14:18:20;14.82;;;10.98;;
72676;SDS011;60755;51.374;10.662;2022-08-27T14:20:49;14.18;;;10.70;;
72676;SDS011;60755;51.374;10.662;2022-08-27T14:23:15;13.57;;;11.10;;
72676;SDS011;60755;51.374;10.662;2022-08-27T14:25:42;13.05;;;10.70;;
72676;SDS011;60755;51.374;10.662;2022-08-27T14:28:09;12.13;;;9.57;;
72676;SDS011;60755;51.374;10.662;2022-08-27T14:30:37;12.68;;;9.95;;
72676;SDS011;60755;51.374;10.662;2022-08-27T14:33:03;16.17;;;9.85;;
72676;SDS011;60755;51.374;10.662;2022-08-27T14:35:32;13.55;;;9.65;;